N45XS KGGG-KHOT
Flight info
| Callsign | N45XS |
|---|---|
| Flight time | 0h 56m |
| Altitude | 5000 |
| Route | KASL TXK HOSSY |
| Aircraft | BE58/L-VGDW/C |
Departure
| Time | 2026-05-04 21:21 |
|---|---|
| Airport | East Texas Regional Airport (KGGG) |
Arrival
| Time | 2026-05-04 22:18 |
|---|---|
| Airport | Memorial Field Airport (KHOT) |
| Time | Latitude | Longitude | Altitude | Speed | Heading |
|---|---|---|---|---|---|
| 2026-05-04 21:12 | 32.38658 | -94.71887 | 357 ft | 0 kts | 66° |
| 2026-05-04 21:16 | 32.38659 | -94.71884 | 357 ft | 2 kts | 61° |
| 2026-05-04 21:16 | 32.38696 | -94.71857 | 358 ft | 10 kts | 18° |
| 2026-05-04 21:17 | 32.38799 | -94.71845 | 356 ft | 19 kts | 1° |
| 2026-05-04 21:17 | 32.38918 | -94.71861 | 353 ft | 0 kts | 336° |
| 2026-05-04 21:17 | 32.38925 | -94.71865 | 353 ft | 4 kts | 336° |
| 2026-05-04 21:17 | 32.38978 | -94.71892 | 352 ft | 11 kts | 342° |
| 2026-05-04 21:18 | 32.39055 | -94.71838 | 352 ft | 12 kts | 40° |
| 2026-05-04 21:18 | 32.39138 | -94.71873 | 351 ft | 16 kts | 320° |
| 2026-05-04 21:18 | 32.39242 | -94.71971 | 348 ft | 21 kts | 347° |
| 2026-05-04 21:18 | 32.39364 | -94.71866 | 345 ft | 20 kts | 43° |
| 2026-05-04 21:19 | 32.39394 | -94.71763 | 344 ft | 1 kts | 85° |
| 2026-05-04 21:19 | 32.39394 | -94.71752 | 344 ft | 0 kts | 93° |
| 2026-05-04 21:20 | 32.39392 | -94.71737 | 344 ft | 4 kts | 97° |
| 2026-05-04 21:20 | 32.39386 | -94.71687 | 344 ft | 7 kts | 110° |
| 2026-05-04 21:20 | 32.39359 | -94.71668 | 345 ft | 0 kts | 181° |
| 2026-05-04 21:21 | 32.39345 | -94.71669 | 345 ft | 11 kts | 181° |
| 2026-05-04 21:21 | 32.39028 | -94.71661 | 352 ft | 79 kts | 178° |
| 2026-05-04 21:21 | 32.38395 | -94.71639 | 609 ft | 90 kts | 179° |
| 2026-05-04 21:21 | 32.37819 | -94.71604 | 1060 ft | 84 kts | 175° |
| 2026-05-04 21:22 | 32.37207 | -94.71577 | 1380 ft | 92 kts | 179° |
| 2026-05-04 21:22 | 32.36623 | -94.71378 | 1800 ft | 89 kts | 147° |
| 2026-05-04 21:22 | 32.36198 | -94.70755 | 2053 ft | 105 kts | 121° |
| 2026-05-04 21:22 | 32.36072 | -94.69922 | 2424 ft | 110 kts | 88° |
| 2026-05-04 21:23 | 32.36411 | -94.69069 | 2693 ft | 122 kts | 51° |
| 2026-05-04 21:23 | 32.37143 | -94.68397 | 2720 ft | 150 kts | 31° |
| 2026-05-04 21:23 | 32.38107 | -94.67733 | 2791 ft | 166 kts | 31° |
| 2026-05-04 21:23 | 32.39072 | -94.67074 | 3183 ft | 159 kts | 32° |
| 2026-05-04 21:24 | 32.39981 | -94.66333 | 3477 ft | 158 kts | 38° |
| 2026-05-04 21:24 | 32.40791 | -94.65473 | 3749 ft | 158 kts | 50° |
| 2026-05-04 21:24 | 32.41427 | -94.64420 | 3975 ft | 159 kts | 64° |
| 2026-05-04 21:24 | 32.41798 | -94.63219 | 4264 ft | 154 kts | 79° |
| 2026-05-04 21:25 | 32.42071 | -94.61986 | 4494 ft | 157 kts | 79° |
| 2026-05-04 21:25 | 32.42325 | -94.60702 | 4664 ft | 162 kts | 81° |
| 2026-05-04 21:25 | 32.42597 | -94.59418 | 4896 ft | 162 kts | 78° |
| 2026-05-04 21:25 | 32.42879 | -94.58118 | 5059 ft | 167 kts | 78° |
| 2026-05-04 21:26 | 32.43179 | -94.56712 | 5037 ft | 179 kts | 78° |
| 2026-05-04 21:26 | 32.43482 | -94.55277 | 5063 ft | 185 kts | 78° |
| 2026-05-04 21:26 | 32.43795 | -94.53776 | 5036 ft | 191 kts | 78° |
| 2026-05-04 21:26 | 32.44112 | -94.52238 | 5055 ft | 194 kts | 78° |
| 2026-05-04 21:27 | 32.44432 | -94.50665 | 5002 ft | 198 kts | 78° |
| 2026-05-04 21:27 | 32.44753 | -94.49075 | 5019 ft | 198 kts | 78° |
| 2026-05-04 21:27 | 32.45072 | -94.47489 | 4980 ft | 200 kts | 78° |
| 2026-05-04 21:27 | 32.45391 | -94.45894 | 4992 ft | 198 kts | 78° |
| 2026-05-04 21:28 | 32.45789 | -94.44308 | 4977 ft | 199 kts | 72° |
| 2026-05-04 21:28 | 32.46282 | -94.42782 | 4990 ft | 199 kts | 69° |
| 2026-05-04 21:28 | 32.46787 | -94.41258 | 4983 ft | 199 kts | 69° |
| 2026-05-04 21:28 | 32.47291 | -94.39732 | 4989 ft | 199 kts | 69° |
| 2026-05-04 21:29 | 32.47815 | -94.38210 | 4983 ft | 199 kts | 66° |
| 2026-05-04 21:29 | 32.48406 | -94.36729 | 4990 ft | 199 kts | 63° |
| 2026-05-04 21:29 | 32.49059 | -94.35282 | 4987 ft | 199 kts | 60° |
| 2026-05-04 21:29 | 32.49752 | -94.33865 | 4987 ft | 199 kts | 60° |
| 2026-05-04 21:30 | 32.50488 | -94.32463 | 4981 ft | 199 kts | 54° |
| 2026-05-04 21:30 | 32.51367 | -94.31201 | 4965 ft | 199 kts | 40° |
| 2026-05-04 21:30 | 32.52437 | -94.30188 | 5008 ft | 196 kts | 36° |
| 2026-05-04 21:30 | 32.53593 | -94.29346 | 4957 ft | 197 kts | 21° |
| 2026-05-04 21:31 | 32.56179 | -94.28509 | 4959 ft | 194 kts | 1° |
| 2026-05-04 21:31 | 32.57505 | -94.28381 | 5012 ft | 191 kts | 1° |
| 2026-05-04 21:31 | 32.58840 | -94.28286 | 4971 ft | 192 kts | 358° |
| 2026-05-04 21:32 | 32.60165 | -94.28243 | 4998 ft | 191 kts | 358° |
| 2026-05-04 21:32 | 32.61504 | -94.28203 | 4978 ft | 192 kts | 358° |
| 2026-05-04 21:32 | 32.62838 | -94.28156 | 4989 ft | 192 kts | 0° |
| 2026-05-04 21:32 | 32.64163 | -94.27953 | 4981 ft | 193 kts | 5° |
| 2026-05-04 21:33 | 32.65483 | -94.27703 | 4992 ft | 193 kts | 6° |
| 2026-05-04 21:33 | 32.66808 | -94.27450 | 4987 ft | 193 kts | 6° |
| 2026-05-04 21:33 | 32.68131 | -94.27196 | 4991 ft | 193 kts | 6° |
| 2026-05-04 21:33 | 32.69446 | -94.26942 | 4990 ft | 192 kts | 6° |
| 2026-05-04 21:34 | 32.70761 | -94.26688 | 4993 ft | 192 kts | 6° |
| 2026-05-04 21:34 | 32.72082 | -94.26433 | 4993 ft | 191 kts | 6° |
| 2026-05-04 21:34 | 32.73398 | -94.26177 | 4995 ft | 191 kts | 6° |
| 2026-05-04 21:34 | 32.74702 | -94.25924 | 4996 ft | 190 kts | 6° |
| 2026-05-04 21:35 | 32.76005 | -94.25670 | 4998 ft | 190 kts | 6° |
| 2026-05-04 21:35 | 32.77310 | -94.25416 | 5000 ft | 189 kts | 6° |
| 2026-05-04 21:35 | 32.78610 | -94.25163 | 5002 ft | 189 kts | 6° |
| 2026-05-04 21:35 | 32.79891 | -94.24915 | 5004 ft | 188 kts | 6° |
| 2026-05-04 21:36 | 32.80356 | -94.24824 | 5005 ft | 188 kts | 6° |
| 2026-05-04 21:36 | 32.81416 | -94.24619 | 5008 ft | 187 kts | 6° |
| 2026-05-04 21:36 | 32.82686 | -94.24328 | 5010 ft | 187 kts | 10° |
| 2026-05-04 21:36 | 32.83949 | -94.23940 | 5017 ft | 186 kts | 12° |
| 2026-05-04 21:37 | 32.85193 | -94.23550 | 5016 ft | 185 kts | 12° |
| 2026-05-04 21:37 | 32.86419 | -94.23171 | 5025 ft | 184 kts | 12° |
| 2026-05-04 21:37 | 32.87657 | -94.22793 | 5025 ft | 183 kts | 12° |
| 2026-05-04 21:37 | 32.88883 | -94.22424 | 5031 ft | 182 kts | 12° |
| 2026-05-04 21:38 | 32.90122 | -94.22059 | 5033 ft | 181 kts | 12° |
| 2026-05-04 21:38 | 32.91342 | -94.21705 | 5037 ft | 181 kts | 12° |
| 2026-05-04 21:38 | 32.92558 | -94.21358 | 5039 ft | 180 kts | 12° |
| 2026-05-04 21:38 | 32.93782 | -94.21017 | 5043 ft | 180 kts | 12° |
| 2026-05-04 21:39 | 32.94993 | -94.20683 | 5045 ft | 180 kts | 12° |
| 2026-05-04 21:39 | 32.96214 | -94.20354 | 5049 ft | 180 kts | 12° |
| 2026-05-04 21:39 | 32.97443 | -94.20024 | 5047 ft | 180 kts | 12° |
| 2026-05-04 21:39 | 32.98650 | -94.19700 | 5050 ft | 180 kts | 12° |
| 2026-05-04 21:40 | 32.99879 | -94.19370 | 5049 ft | 180 kts | 12° |
| 2026-05-04 21:40 | 33.01094 | -94.19041 | 5050 ft | 179 kts | 12° |
| 2026-05-04 21:40 | 33.02298 | -94.18716 | 5049 ft | 179 kts | 12° |
| 2026-05-04 21:40 | 33.03519 | -94.18385 | 5049 ft | 179 kts | 12° |
| 2026-05-04 21:41 | 33.04730 | -94.18057 | 5049 ft | 179 kts | 12° |
| 2026-05-04 21:41 | 33.05949 | -94.17725 | 5049 ft | 179 kts | 12° |
| 2026-05-04 21:41 | 33.07158 | -94.17396 | 5049 ft | 179 kts | 12° |
| 2026-05-04 21:41 | 33.08356 | -94.17069 | 5049 ft | 178 kts | 12° |
| 2026-05-04 21:42 | 33.09570 | -94.16736 | 5048 ft | 178 kts | 12° |
| 2026-05-04 21:42 | 33.10782 | -94.16404 | 5050 ft | 178 kts | 12° |
| 2026-05-04 21:42 | 33.11986 | -94.16074 | 5048 ft | 178 kts | 12° |
| 2026-05-04 21:42 | 33.13191 | -94.15740 | 5049 ft | 178 kts | 11° |
| 2026-05-04 21:43 | 33.14388 | -94.15398 | 5042 ft | 178 kts | 12° |
| 2026-05-04 21:43 | 33.15590 | -94.15046 | 5037 ft | 179 kts | 11° |
| 2026-05-04 21:43 | 33.16799 | -94.14689 | 5035 ft | 179 kts | 11° |
| 2026-05-04 21:43 | 33.18007 | -94.14332 | 5027 ft | 179 kts | 10° |
| 2026-05-04 21:44 | 33.19226 | -94.13972 | 5023 ft | 180 kts | 10° |
| 2026-05-04 21:44 | 33.20442 | -94.13612 | 5016 ft | 181 kts | 9° |
| 2026-05-04 21:44 | 33.21663 | -94.13253 | 5017 ft | 181 kts | 9° |
| 2026-05-04 21:44 | 33.22887 | -94.12888 | 5004 ft | 183 kts | 9° |
| 2026-05-04 21:45 | 33.24139 | -94.12522 | 5002 ft | 185 kts | 9° |
| 2026-05-04 21:45 | 33.25391 | -94.12157 | 4994 ft | 187 kts | 8° |
| 2026-05-04 21:45 | 33.26650 | -94.11790 | 4995 ft | 188 kts | 8° |
| 2026-05-04 21:45 | 33.27934 | -94.11414 | 4981 ft | 191 kts | 8° |
| 2026-05-04 21:46 | 33.29224 | -94.11052 | 4990 ft | 192 kts | 8° |
| 2026-05-04 21:46 | 33.30541 | -94.10688 | 4987 ft | 194 kts | 7° |
| 2026-05-04 21:46 | 33.31856 | -94.10317 | 4988 ft | 195 kts | 9° |
| 2026-05-04 21:46 | 33.33178 | -94.09951 | 4990 ft | 195 kts | 8° |
| 2026-05-04 21:47 | 33.34502 | -94.09589 | 4961 ft | 197 kts | 8° |
| 2026-05-04 21:47 | 33.35827 | -94.09218 | 4986 ft | 197 kts | 9° |
| 2026-05-04 21:47 | 33.37166 | -94.08844 | 4974 ft | 198 kts | 8° |
| 2026-05-04 21:47 | 33.37825 | -94.08659 | 4982 ft | 198 kts | 9° |
| 2026-05-04 21:48 | 33.39151 | -94.08293 | 4980 ft | 199 kts | 8° |
| 2026-05-04 21:48 | 33.40505 | -94.07918 | 4986 ft | 199 kts | 8° |
| 2026-05-04 21:48 | 33.41860 | -94.07544 | 4971 ft | 200 kts | 9° |
| 2026-05-04 21:48 | 33.43205 | -94.07175 | 4986 ft | 199 kts | 8° |
| 2026-05-04 21:49 | 33.44563 | -94.06789 | 4975 ft | 199 kts | 9° |
| 2026-05-04 21:49 | 33.45909 | -94.06406 | 4963 ft | 200 kts | 9° |
| 2026-05-04 21:49 | 33.47262 | -94.06027 | 4983 ft | 199 kts | 8° |
| 2026-05-04 21:49 | 33.48600 | -94.05650 | 4961 ft | 201 kts | 10° |
| 2026-05-04 21:50 | 33.49965 | -94.05262 | 4984 ft | 199 kts | 8° |
| 2026-05-04 21:50 | 33.51301 | -94.04886 | 4969 ft | 201 kts | 8° |
| 2026-05-04 21:50 | 33.52661 | -94.04494 | 4995 ft | 199 kts | 8° |
| 2026-05-04 21:50 | 33.54001 | -94.04109 | 4971 ft | 200 kts | 9° |
| 2026-05-04 21:51 | 33.55358 | -94.03736 | 4983 ft | 199 kts | 8° |
| 2026-05-04 21:51 | 33.56697 | -94.03365 | 4972 ft | 199 kts | 8° |
| 2026-05-04 21:51 | 33.58024 | -94.02808 | 4951 ft | 203 kts | 25° |
| 2026-05-04 21:51 | 33.59143 | -94.01809 | 4979 ft | 203 kts | 42° |
| 2026-05-04 21:52 | 33.60066 | -94.00513 | 4967 ft | 206 kts | 51° |
| 2026-05-04 21:52 | 33.60920 | -93.99151 | 5005 ft | 204 kts | 53° |
| 2026-05-04 21:52 | 33.61805 | -93.97813 | 4965 ft | 206 kts | 45° |
| 2026-05-04 21:52 | 33.62868 | -93.96678 | 4984 ft | 204 kts | 38° |
| 2026-05-04 21:53 | 33.63956 | -93.95593 | 4976 ft | 205 kts | 37° |
| 2026-05-04 21:53 | 33.65061 | -93.94498 | 4981 ft | 204 kts | 37° |
| 2026-05-04 21:53 | 33.66158 | -93.93407 | 4962 ft | 206 kts | 38° |
| 2026-05-04 21:53 | 33.67240 | -93.92334 | 4998 ft | 204 kts | 38° |
| 2026-05-04 21:54 | 33.68340 | -93.91245 | 4962 ft | 206 kts | 36° |
| 2026-05-04 21:54 | 33.69443 | -93.90149 | 4990 ft | 204 kts | 37° |
| 2026-05-04 21:54 | 33.70536 | -93.89059 | 4971 ft | 206 kts | 37° |
| 2026-05-04 21:54 | 33.71639 | -93.87969 | 4985 ft | 205 kts | 38° |
| 2026-05-04 21:55 | 33.72739 | -93.86889 | 4981 ft | 205 kts | 37° |
| 2026-05-04 21:55 | 33.73847 | -93.85800 | 4967 ft | 206 kts | 37° |
| 2026-05-04 21:55 | 33.74937 | -93.84715 | 4984 ft | 204 kts | 37° |
| 2026-05-04 21:55 | 33.76051 | -93.83619 | 4968 ft | 206 kts | 36° |
| 2026-05-04 21:56 | 33.77142 | -93.82534 | 4994 ft | 205 kts | 37° |
| 2026-05-04 21:56 | 33.78247 | -93.81445 | 4982 ft | 204 kts | 37° |
| 2026-05-04 21:56 | 33.79353 | -93.80358 | 4976 ft | 204 kts | 37° |
| 2026-05-04 21:56 | 33.80442 | -93.79280 | 4964 ft | 206 kts | 37° |
| 2026-05-04 21:57 | 33.81544 | -93.78189 | 4986 ft | 205 kts | 37° |
| 2026-05-04 21:57 | 33.82653 | -93.77097 | 4968 ft | 206 kts | 38° |
| 2026-05-04 21:57 | 33.83759 | -93.76003 | 5002 ft | 204 kts | 38° |
| 2026-05-04 21:57 | 33.84853 | -93.74922 | 4958 ft | 207 kts | 37° |
| 2026-05-04 21:58 | 33.85968 | -93.73851 | 5002 ft | 203 kts | 36° |
| 2026-05-04 21:58 | 33.87080 | -93.72792 | 4959 ft | 205 kts | 36° |
| 2026-05-04 21:58 | 33.88201 | -93.71729 | 4990 ft | 204 kts | 36° |
| 2026-05-04 21:58 | 33.89319 | -93.70651 | 4964 ft | 206 kts | 36° |
| 2026-05-04 21:59 | 33.90422 | -93.69595 | 4989 ft | 205 kts | 36° |
| 2026-05-04 21:59 | 33.91534 | -93.68519 | 4980 ft | 205 kts | 36° |
| 2026-05-04 21:59 | 33.92653 | -93.67453 | 4973 ft | 206 kts | 36° |
| 2026-05-04 21:59 | 33.93778 | -93.66369 | 4922 ft | 209 kts | 36° |
| 2026-05-04 22:00 | 33.94929 | -93.65271 | 4812 ft | 212 kts | 36° |
| 2026-05-04 22:00 | 33.96100 | -93.64151 | 4617 ft | 218 kts | 37° |
| 2026-05-04 22:00 | 33.97287 | -93.63038 | 4432 ft | 216 kts | 36° |
| 2026-05-04 22:00 | 33.98480 | -93.61919 | 4154 ft | 217 kts | 36° |
| 2026-05-04 22:01 | 33.99661 | -93.60807 | 3916 ft | 216 kts | 36° |
| 2026-05-04 22:01 | 34.00841 | -93.59709 | 3668 ft | 215 kts | 36° |
| 2026-05-04 22:01 | 34.02027 | -93.58601 | 3413 ft | 216 kts | 36° |
| 2026-05-04 22:01 | 34.03212 | -93.57497 | 3189 ft | 214 kts | 36° |
| 2026-05-04 22:02 | 34.04371 | -93.56406 | 2963 ft | 214 kts | 36° |
| 2026-05-04 22:02 | 34.05527 | -93.55332 | 2732 ft | 213 kts | 36° |
| 2026-05-04 22:02 | 34.06700 | -93.54256 | 2509 ft | 211 kts | 36° |
| 2026-05-04 22:02 | 34.07884 | -93.53169 | 2240 ft | 212 kts | 36° |
| 2026-05-04 22:03 | 34.09036 | -93.52116 | 2020 ft | 211 kts | 36° |
| 2026-05-04 22:03 | 34.10210 | -93.51046 | 1874 ft | 206 kts | 35° |
| 2026-05-04 22:03 | 34.11316 | -93.50035 | 1932 ft | 195 kts | 36° |
| 2026-05-04 22:03 | 34.12392 | -93.49057 | 1923 ft | 192 kts | 35° |
| 2026-05-04 22:04 | 34.13441 | -93.48092 | 1933 ft | 189 kts | 36° |
| 2026-05-04 22:04 | 34.14481 | -93.47133 | 1918 ft | 189 kts | 36° |
| 2026-05-04 22:04 | 34.15521 | -93.46180 | 1955 ft | 186 kts | 36° |
| 2026-05-04 22:04 | 34.16553 | -93.45238 | 1942 ft | 186 kts | 36° |
| 2026-05-04 22:05 | 34.17586 | -93.44295 | 1942 ft | 186 kts | 35° |
| 2026-05-04 22:05 | 34.18617 | -93.43345 | 1948 ft | 186 kts | 36° |
| 2026-05-04 22:05 | 34.19640 | -93.42410 | 1937 ft | 185 kts | 35° |
| 2026-05-04 22:05 | 34.20664 | -93.41470 | 1935 ft | 184 kts | 35° |
| 2026-05-04 22:06 | 34.21677 | -93.40538 | 1947 ft | 183 kts | 37° |
| 2026-05-04 22:06 | 34.22687 | -93.39581 | 1965 ft | 186 kts | 37° |
| 2026-05-04 22:06 | 34.23709 | -93.38617 | 1958 ft | 188 kts | 37° |
| 2026-05-04 22:06 | 34.24733 | -93.37626 | 1948 ft | 190 kts | 39° |
| 2026-05-04 22:07 | 34.25725 | -93.36586 | 1958 ft | 190 kts | 40° |
| 2026-05-04 22:07 | 34.26683 | -93.35469 | 1957 ft | 191 kts | 44° |
| 2026-05-04 22:07 | 34.27610 | -93.34330 | 1944 ft | 191 kts | 45° |
| 2026-05-04 22:07 | 34.28540 | -93.33187 | 1954 ft | 190 kts | 45° |
| 2026-05-04 22:08 | 34.29473 | -93.32051 | 1943 ft | 190 kts | 45° |
| 2026-05-04 22:08 | 34.30421 | -93.30939 | 1940 ft | 190 kts | 43° |
| 2026-05-04 22:08 | 34.31380 | -93.29834 | 1953 ft | 190 kts | 43° |
| 2026-05-04 22:08 | 34.32383 | -93.28803 | 1948 ft | 190 kts | 39° |
| 2026-05-04 22:09 | 34.33408 | -93.27795 | 1948 ft | 190 kts | 39° |
| 2026-05-04 22:09 | 34.34428 | -93.26799 | 1941 ft | 190 kts | 38° |
| 2026-05-04 22:09 | 34.35468 | -93.25788 | 1955 ft | 190 kts | 38° |
| 2026-05-04 22:09 | 34.36504 | -93.24786 | 1945 ft | 191 kts | 38° |
| 2026-05-04 22:10 | 34.37535 | -93.23785 | 1960 ft | 190 kts | 38° |
| 2026-05-04 22:10 | 34.38573 | -93.22781 | 1940 ft | 192 kts | 38° |
| 2026-05-04 22:10 | 34.39600 | -93.21783 | 1937 ft | 191 kts | 37° |
| 2026-05-04 22:10 | 34.40644 | -93.20768 | 1953 ft | 191 kts | 38° |
| 2026-05-04 22:11 | 34.41666 | -93.19773 | 1946 ft | 192 kts | 38° |
| 2026-05-04 22:11 | 34.42571 | -93.18602 | 1935 ft | 191 kts | 56° |
| 2026-05-04 22:11 | 34.43338 | -93.17290 | 1957 ft | 190 kts | 54° |
| 2026-05-04 22:11 | 34.44130 | -93.15990 | 1952 ft | 190 kts | 54° |
| 2026-05-04 22:12 | 34.44915 | -93.14707 | 1948 ft | 191 kts | 54° |
| 2026-05-04 22:12 | 34.45672 | -93.13396 | 1938 ft | 191 kts | 61° |
| 2026-05-04 22:12 | 34.46144 | -93.11916 | 1951 ft | 187 kts | 75° |
| 2026-05-04 22:12 | 34.46515 | -93.10406 | 1945 ft | 187 kts | 76° |
| 2026-05-04 22:13 | 34.46898 | -93.08906 | 1947 ft | 187 kts | 69° |
| 2026-05-04 22:13 | 34.47492 | -93.07465 | 1679 ft | 199 kts | 65° |
| 2026-05-04 22:13 | 34.47984 | -93.05907 | 1713 ft | 183 kts | 74° |
| 2026-05-04 22:13 | 34.48364 | -93.04466 | 1769 ft | 174 kts | 75° |
| 2026-05-04 22:14 | 34.48734 | -93.03101 | 1822 ft | 169 kts | 71° |
| 2026-05-04 22:14 | 34.49168 | -93.01746 | 1694 ft | 178 kts | 64° |
| 2026-05-04 22:14 | 34.50033 | -93.00719 | 1581 ft | 178 kts | 22° |
| 2026-05-04 22:14 | 34.51158 | -93.00549 | 1621 ft | 157 kts | 344° |
| 2026-05-04 22:15 | 34.51960 | -93.01233 | 1506 ft | 140 kts | 290° |
| 2026-05-04 22:15 | 34.51843 | -93.02291 | 1344 ft | 128 kts | 220° |
| 2026-05-04 22:15 | 34.51057 | -93.02628 | 1197 ft | 115 kts | 198° |
| 2026-05-04 22:15 | 34.50556 | -93.03149 | 1314 ft | 94 kts | 239° |
| 2026-05-04 22:16 | 34.50264 | -93.03929 | 1322 ft | 105 kts | 249° |
| 2026-05-04 22:16 | 34.50135 | -93.04858 | 1351 ft | 119 kts | 264° |
| 2026-05-04 22:16 | 34.50067 | -93.05866 | 1405 ft | 122 kts | 250° |
| 2026-05-04 22:16 | 34.49643 | -93.06719 | 1366 ft | 114 kts | 231° |
| 2026-05-04 22:17 | 34.49155 | -93.07463 | 1267 ft | 102 kts | 233° |
| 2026-05-04 22:17 | 34.48727 | -93.08227 | 922 ft | 108 kts | 235° |
| 2026-05-04 22:17 | 34.48324 | -93.08919 | 600 ft | 92 kts | 229° |
| 2026-05-04 22:17 | 34.48002 | -93.09458 | 523 ft | 58 kts | 238° |
| 2026-05-04 22:18 | 34.47928 | -93.09594 | 518 ft | 5 kts | 243° |
| 2026-05-04 22:18 | 34.47969 | -93.09699 | 518 ft | 9 kts | 326° |
| 2026-05-04 22:18 | 34.48083 | -93.09666 | 521 ft | 25 kts | 38° |
| 2026-05-04 22:18 | 34.48159 | -93.09496 | 526 ft | 12 kts | 58° |
| 2026-05-04 22:19 | 34.48193 | -93.09481 | 527 ft | 2 kts | 310° |
| 2026-05-04 22:19 | 34.48198 | -93.09487 | 527 ft | 0 kts | 327° |